Latest Weather Observations for Narrabri

IDN60801

Issued at 3:33 am EDT Wednesday 28 January 2015 (issued every 30 minutes, with the page automatically refreshed every 10 minutes)

About weather observations | Map of weather stations | Latest weather observations for NSW | Other Formats
Station Details ID: 054038 Name: NARRABRI AIRPORT AWS Lat: -30.32 Lon: 149.83 Height: 229.02 m
Data from the previous 72 hours. | See also: Recent months at Narrabri
Date/Time
EDT
Temp
°C
App
Temp
°C
Dew
Point
Rel
Hum
%
Delta-T
°C
Wind Press
QNH
hPa
Press
MSL
hPa
Rain
since 9 am
mm
Dir
 
Spd
km/h
Gust
km/h
Spd
kts
Gust
kts
28/03:30am 18.1 16.2 15.2 83 1.7 SE 19 28 10 15 1006.3 1004.9 17.8
28/03:00am 18.2 16.8 15.5 84 1.6 SE 17 22 9 12 1006.2 1004.8 17.8
28/02:30am 18.4 17.1 15.8 85 1.6 SSE 17 22 9 12 1006.3 1004.9 17.8
28/02:00am 18.4 18.8 16.4 88 1.2 SSE 9 15 5 8 1006.5 1005.1 17.8
28/01:30am 18.8 19.2 16.2 85 1.6 SW 9 13 5 7 1006.7 1005.3 17.8
28/01:00am 19.3 19.1 15.8 80 2.1 S 11 17 6 9 1006.9 1005.5 17.8
28/12:30am 19.8 20.0 15.7 77 2.5 SSE 9 13 5 7 1006.8 1005.4 17.8
28/12:00am 20.0 18.1 15.2 74 2.9 SSW 19 22 10 12 1006.4 1005.0 17.8
 
Date/Time
EDT
Temp
°C
App
Temp
°C
Dew
Point
Rel
Hum
%
Delta-T
°C
Wind Press
QNH
hPa
Press
MSL
hPa
Rain
since 9 am
mm
Dir
 
Spd
km/h
Gust
km/h
Spd
kts
Gust
kts
27/11:30pm 19.6 19.9 14.4 72 3.0 SW 6 9 3 5 1006.4 1005.0 17.8
27/11:00pm 21.0 20.2 12.9 60 4.7 SE 9 15 5 8 1006.2 1004.8 17.8
27/10:30pm 21.5 19.9 12.9 58 5.0 SE 13 19 7 10 1006.5 1005.1 17.8
27/10:00pm 21.8 18.9 12.9 57 5.1 ESE 20 35 11 19 1006.1 1004.7 17.8
27/09:30pm 21.6 17.9 13.8 61 4.6 ESE 26 41 14 22 1005.6 1004.1 17.8
27/09:00pm 20.9 17.7 14.3 66 3.9 ESE 24 35 13 19 1005.5 1004.0 17.8
27/08:30pm 20.1 16.4 15.1 73 3.0 ESE 28 44 15 24 1006.0 1004.6 17.8
27/08:00pm 19.1 16.1 16.9 87 1.3 ESE 28 46 15 25 1006.5 1005.1 17.8
27/07:32pm 18.6 16.2 18.3 98 0.2 ESE 28 46 15 25 1006.7 1005.3 17.4
27/07:30pm 18.7 16.0 18.5 99 0.1 ESE 30 46 16 25 1006.7 1005.3 17.4
27/07:25pm 18.7 - - - - ESE 28 46 15 25 1006.8 1005.4 17.2
27/07:00pm 18.5 - - - - SE 26 41 14 22 1008.2 1006.7 16.6
27/06:30pm 18.6 - - - - SE 32 50 17 27 1008.5 1007.0 16.0
27/06:19pm 18.7 - - - - SE 28 46 15 25 1009.1 1007.6 16.0
27/06:00pm 18.9 - - - - SSE 28 44 15 24 1009.1 1007.6 15.4
27/05:30pm 18.7 - - - - SSE 24 33 13 18 1008.2 1006.7 15.4
27/05:00pm 18.1 - - - - SSE 30 41 16 22 1007.5 1006.0 14.8
27/04:30pm 17.8 - - - - S 20 32 11 17 1008.9 1007.4 9.6
27/04:00pm 18.3 16.3 17.5 95 0.5 S 24 39 13 21 1007.7 1006.2 1.2
27/03:49pm 18.8 15.1 16.9 89 1.2 SSE 32 43 17 23 1007.2 1005.7 0.4
27/03:32pm 21.4 15.6 15.9 71 3.3 SSE 41 65 22 35 1005.1 1003.6 0.0
27/03:30pm 22.3 17.8 17.4 74 3.1 SSE 37 50 20 27 1005.1 1003.6 0.0
27/03:22pm 23.1 20.2 17.1 69 3.7 S 28 43 15 23 1005.5 1004.0 0.0
27/03:00pm 27.8 30.2 20.9 66 4.6 NE 9 13 5 7 1004.2 1002.7 0.0
27/02:30pm 30.9 28.3 16.9 43 8.9 N 26 35 14 19 1004.4 1002.9 0.0
27/02:00pm 31.7 30.1 16.4 39 9.7 N 20 33 11 18 1004.7 1003.2 0.0
27/01:30pm 31.0 29.5 16.2 41 9.3 NE 19 32 10 17 1005.5 1004.0 0.0
27/01:00pm 30.6 29.8 17.0 44 8.7 NNE 17 32 9 17 1006.3 1004.9 0.0
27/12:30pm 29.9 29.7 16.7 45 8.4 NNE 13 22 7 12 1007.2 1005.7 0.0
27/12:00pm 29.6 30.2 16.8 46 8.1 NE 9 20 5 11 1007.7 1006.2 0.0
27/11:30am 28.9 30.0 17.1 49 7.5 ESE 7 11 4 6 1008.2 1006.7 0.0
27/11:00am 28.0 29.3 17.5 52 6.7 SW 7 11 4 6 1008.7 1007.2 0.0
27/10:30am 26.8 28.8 17.8 57 5.7 ENE 4 9 2 5 1009.1 1007.6 0.0
27/10:00am 26.0 27.4 17.9 61 5.2 SSE 7 13 4 7 1009.2 1007.7 0.0
27/09:30am 24.9 26.0 18.1 66 4.3 SE 9 19 5 10 1009.1 1007.6 0.0
27/09:00am 23.5 23.4 17.9 71 3.5 SE 15 24 8 13 1009.2 1007.7 0.0
27/08:30am 22.4 21.4 17.5 74 3.1 SE 19 28 10 15 1009.0 1007.5 0.0
27/08:00am 21.9 20.6 17.3 75 2.9 SSE 20 30 11 16 1008.9 1007.4 0.0
27/07:30am 21.3 19.6 17.3 78 2.5 SSE 22 32 12 17 1008.5 1007.0 0.0
27/07:00am 20.8 19.1 17.2 80 2.2 SSE 22 30 12 16 1008.2 1006.7 0.0
27/06:30am 20.7 19.6 17.3 81 2.1 SSE 19 24 10 13 1007.8 1006.3 0.0
27/06:00am 20.9 19.9 17.5 81 2.1 SSE 19 24 10 13 1007.6 1006.1 0.0
27/05:30am 21.1 20.1 17.5 80 2.2 SSE 19 24 10 13 1007.3 1005.8 0.0
27/05:00am 21.0 20.4 17.6 81 2.1 SSE 17 22 9 12 1007.5 1006.0 0.0
27/04:30am 20.9 21.1 17.7 82 2.0 SSE 13 19 7 10 1007.4 1005.9 0.0
27/04:00am 21.3 21.2 17.9 81 2.1 SSE 15 20 8 11 1007.5 1006.0 0.0
27/03:30am 21.4 21.7 18.0 81 2.1 SE 13 19 7 10 1007.7 1006.2 0.0
27/03:00am 21.3 22.8 18.1 82 2.0 SSE 7 11 4 6 1008.1 1006.6 0.0
27/02:30am 21.5 21.6 18.3 82 2.0 SSE 15 20 8 11 1008.4 1006.9 0.0
27/02:00am 21.5 21.2 18.3 82 2.0 SSE 17 22 9 12 1008.4 1006.9 0.0
27/01:30am 21.6 21.7 18.4 82 2.0 S 15 20 8 11 1008.6 1007.1 0.0
27/01:00am 22.1 23.0 18.5 80 2.3 SE 11 19 6 10 1008.9 1007.4 0.0
27/12:30am 22.4 22.2 18.6 79 2.4 SSE 17 22 9 12 1009.0 1007.5 0.0
27/12:00am 22.7 22.6 18.7 78 2.6 S 17 22 9 12 1008.9 1007.4 0.0
 
Date/Time
EDT
Temp
°C
App
Temp
°C
Dew
Point
Rel
Hum
%
Delta-T
°C
Wind Press
QNH
hPa
Press
MSL
hPa
Rain
since 9 am
mm
Dir
 
Spd
km/h
Gust
km/h
Spd
kts
Gust
kts
26/11:30pm 23.2 23.6 18.9 77 2.7 SE 15 20 8 11 1009.1 1007.6 0.0
26/11:00pm 23.5 23.1 19.0 76 2.9 SSE 19 30 10 16 1008.7 1007.2 0.0
26/10:30pm 23.9 23.3 18.8 73 3.3 SSE 20 24 11 13 1008.6 1007.1 0.0
26/10:00pm 24.7 24.0 18.2 67 4.1 SSE 19 26 10 14 1008.8 1007.3 0.0
26/09:30pm 25.0 24.7 18.2 66 4.3 SE 17 26 9 14 1008.4 1006.9 0.0
26/09:00pm 25.1 25.4 18.8 68 4.1 SSE 15 24 8 13 1008.4 1006.9 0.0
26/08:30pm 25.3 24.9 18.0 64 4.6 SE 17 24 9 13 1008.3 1006.8 0.0
26/08:00pm 26.3 27.7 17.9 60 5.4 SSE 7 11 4 6 1008.0 1006.5 0.0
26/07:30pm 26.3 25.1 17.6 58 5.5 SE 20 35 11 19 1006.6 1005.2 0.0
26/07:00pm 27.2 24.2 16.8 53 6.5 SE 28 43 15 23 1006.5 1005.1 0.0
26/06:30pm 29.1 27.7 16.6 46 7.9 ENE 19 46 10 25 1006.2 1004.8 0.0
26/06:00pm 33.2 28.8 15.2 33 11.3 SSE 32 50 17 27 1004.4 1002.9 0.0
26/05:49pm 33.0 28.2 15.5 35 11.0 S 35 54 19 29 1003.5 1002.0 0.0
26/05:30pm 34.7 31.0 17.0 35 11.4 S 32 48 17 26 1002.7 1001.2 0.0
26/05:29pm 34.2 30.3 16.5 34 11.3 S 32 50 17 27 1002.7 1001.2 0.0
26/05:09pm 34.2 31.5 14.7 31 12.2 SSE 22 50 12 27 1002.6 1001.1 0.0
26/05:00pm 36.4 33.4 10.6 21 15.3 SSE 17 26 9 14 1002.6 1001.1 0.0
26/04:30pm 37.3 33.5 9.0 18 16.4 WSW 19 24 10 13 1002.8 1001.3 0.0
26/04:00pm 37.6 33.4 7.5 16 17.2 W 19 28 10 15 1003.0 1001.5 0.0
26/03:30pm 37.9 34.5 7.7 16 17.2 W 15 28 8 15 1003.3 1001.8 0.0
26/03:00pm 37.1 35.0 9.6 19 16.2 SSW 11 15 6 8 1003.7 1002.2 0.0
26/02:30pm 37.3 33.7 9.8 19 16.2 WSW 19 30 10 16 1004.2 1002.7 0.0
26/02:00pm 37.6 36.2 10.8 20 16.0 NW 9 17 5 9 1004.1 1002.6 0.0
26/01:30pm 37.6 35.2 10.0 19 16.3 NW 13 28 7 15 1004.9 1003.4 0.0
26/01:00pm 36.4 34.3 11.3 22 15.1 SW 13 17 7 9 1005.4 1003.9 0.0
26/12:30pm 36.8 35.0 10.9 21 15.4 WNW 11 19 6 10 1006.2 1004.8 0.0
26/12:00pm 35.5 35.9 16.3 32 12.3 SW 9 24 5 13 1006.7 1005.3 0.0
26/11:30am 33.8 34.3 16.6 35 11.0 SE 9 15 5 8 1007.3 1005.8 0.0
26/11:00am 31.9 31.9 16.2 38 9.9 NNE 11 19 6 10 1007.4 1005.9 0.0
26/10:30am 31.2 31.6 16.4 41 9.4 SSE 9 13 5 7 1007.7 1006.2 0.0
26/10:00am 31.1 31.4 15.9 40 9.6 SE 9 13 5 7 1008.0 1006.5 0.0
26/09:30am 29.0 27.4 15.9 45 8.2 SSE 19 24 10 13 1008.0 1006.5 0.0
26/09:00am 27.7 25.9 16.0 49 7.3 SSE 20 28 11 15 1008.1 1006.6 0.0
26/08:30am 26.6 24.6 15.6 50 6.8 SSE 20 28 11 15 1008.0 1006.5 0.0
26/08:00am 25.2 22.3 15.2 54 6.1 SE 24 37 13 20 1007.7 1006.2 0.0
26/07:30am 24.5 20.9 13.1 49 6.7 SE 24 33 13 18 1007.5 1006.0 0.0
26/07:00am 24.1 20.4 12.7 49 6.6 SE 24 35 13 19 1006.7 1005.3 0.0
26/06:30am 23.4 20.1 11.5 47 6.7 SSE 20 28 11 15 1006.3 1004.9 0.0
26/06:00am 22.6 19.9 11.7 50 6.2 SSW 17 24 9 13 1006.3 1004.9 0.0
26/05:30am 24.6 22.0 11.9 45 7.3 SSE 17 20 9 11 1005.7 1004.3 0.0
26/05:00am 25.0 22.5 12.2 44 7.4 SSE 17 22 9 12 1005.4 1003.9 0.0
26/04:30am 25.2 22.5 11.7 43 7.7 SSE 17 22 9 12 1005.6 1004.1 0.0
26/04:00am 25.7 23.3 11.5 41 8.2 SE 15 22 8 12 1005.7 1004.3 0.0
26/03:30am 26.1 23.3 11.4 39 8.4 SE 17 24 9 13 1005.8 1004.4 0.0
26/03:00am 26.7 24.4 11.6 39 8.7 SSE 15 20 8 11 1005.8 1004.4 0.0
26/02:30am 27.0 25.0 11.5 38 8.9 SE 13 20 7 11 1006.2 1004.8 0.0
26/02:00am 27.5 25.2 11.9 38 9.1 SE 15 26 8 14 1006.4 1005.0 0.0
26/01:30am 28.0 25.5 12.4 38 9.2 SSE 17 24 9 13 1006.6 1005.2 0.0
26/01:00am 28.1 25.4 12.8 38 9.1 SE 19 24 10 13 1006.6 1005.2 0.0
26/12:30am 27.5 26.9 13.4 41 8.4 SE 9 15 5 8 1007.2 1005.7 0.0
26/12:00am 28.4 26.8 12.7 38 9.3 SSE 13 17 7 9 1006.8 1005.4 0.0
 
Date/Time
EDT
Temp
°C
App
Temp
°C
Dew
Point
Rel
Hum
%
Delta-T
°C
Wind Press
QNH
hPa
Press
MSL
hPa
Rain
since 9 am
mm
Dir
 
Spd
km/h
Gust
km/h
Spd
kts
Gust
kts
25/11:30pm 28.9 26.9 12.8 37 9.6 S 15 20 8 11 1006.6 1005.2 0.0
25/11:00pm 28.5 26.8 12.4 37 9.5 S 13 17 7 9 1006.4 1005.0 0.0
25/10:30pm 28.4 26.5 11.9 36 9.6 S 13 15 7 8 1006.0 1004.6 0.0
25/10:00pm 29.7 27.8 11.7 33 10.6 SSW 13 15 7 8 1005.8 1004.4 0.0
25/09:30pm 30.9 29.0 11.8 31 11.3 SSW 13 17 7 9 1005.4 1003.9 0.0
25/09:00pm 31.6 29.2 11.4 29 11.9 SSW 15 17 8 9 1004.8 1003.3 0.0
25/08:30pm 32.8 30.1 10.2 25 13.1 SW 15 20 8 11 1004.4 1002.9 0.0
25/08:00pm 34.0 30.8 9.9 23 14.0 SW 17 22 9 12 1004.0 1002.5 0.0
25/07:30pm 35.6 31.6 9.2 20 15.3 SW 20 28 11 15 1003.7 1002.2 0.0
25/07:00pm 36.4 32.6 9.8 20 15.6 SW 20 28 11 15 1003.4 1001.9 0.0
25/06:30pm 36.4 32.1 10.6 21 15.3 SW 24 35 13 19 1003.2 1001.7 0.0
25/06:00pm 36.3 31.6 10.5 21 15.3 WSW 26 33 14 18 1003.2 1001.7 0.0
25/05:30pm 37.7 33.2 10.1 19 16.3 WSW 24 35 13 19 1003.1 1001.6 0.0
25/05:00pm 38.1 34.7 11.2 20 16.2 W 20 37 11 20 1003.0 1001.5 0.0
25/04:30pm 38.0 35.8 13.3 23 15.3 W 17 24 9 13 1003.2 1001.7 0.0
25/04:00pm 37.3 34.5 12.7 23 15.1 W 19 30 10 16 1003.4 1001.9 0.0
25/03:30pm 37.4 34.5 12.8 23 15.1 W 20 33 11 18 1003.7 1002.2 0.0
25/03:00pm 37.6 34.3 12.9 23 15.2 W 22 41 12 22 1003.9 1002.4 0.0
25/02:30pm 35.8 33.2 13.3 26 13.8 WSW 19 43 10 23 1004.3 1002.8 0.0
25/02:00pm 36.1 34.4 14.7 28 13.5 W 17 28 9 15 1004.6 1003.1 0.0
25/01:30pm 36.0 33.7 14.6 27 13.4 W 20 33 11 18 1004.9 1003.4 0.0
25/01:00pm 35.8 33.2 15.0 29 13.1 WNW 22 35 12 19 1005.3 1003.8 0.0
25/12:30pm 34.7 32.6 14.6 30 12.5 W 19 35 10 19 1005.6 1004.1 0.0
25/12:00pm 33.9 32.3 14.9 32 11.9 W 17 32 9 17 1005.8 1004.4 0.0
25/11:30am 33.4 31.5 15.8 34 11.1 WNW 20 35 11 19 1006.0 1004.6 0.0
25/11:00am 33.1 31.3 16.0 35 10.9 NNW 20 30 11 16 1006.1 1004.7 0.0
25/10:30am 32.2 30.4 16.1 38 10.2 NW 20 28 11 15 1006.5 1005.1 0.0
25/10:00am 31.7 29.8 16.8 40 9.5 N 22 32 12 17 1006.6 1005.2 0.0
25/09:30am 30.8 29.9 18.2 47 8.2 N 20 28 11 15 1006.8 1005.4 0.0
25/09:00am 30.0 29.4 17.5 47 8.0 NNW 17 20 9 11 1006.8 1005.4 0.0
25/08:30am 27.9 29.0 17.1 51 6.8 NNE 7 11 4 6 1006.6 1005.2 0.0
25/08:00am 26.7 28.9 17.5 57 5.8 SSE 2 6 1 3 1006.4 1005.0 0.0
25/07:30am 25.3 27.0 18.5 66 4.4 SE 7 9 4 5 1006.1 1004.7 0.0
25/07:00am 22.9 24.5 19.1 79 2.4 SSE 9 11 5 6 1005.8 1004.4 0.0
25/06:30am 22.4 23.3 18.4 78 2.5 S 11 13 6 7 1005.4 1003.9 0.0
25/06:00am 23.7 26.4 18.6 73 3.3 N 2 7 1 4 1005.0 1003.5 0.0
25/05:30am 24.0 25.6 19.1 74 3.2 NE 9 13 5 7 1005.0 1003.5 0.0
25/05:00am 24.1 25.8 18.5 71 3.6 E 7 11 4 6 1005.0 1003.5 0.0
25/04:30am 24.5 26.3 18.2 68 4.0 SE 6 9 3 5 1005.1 1003.6 0.0
25/04:00am 24.8 26.3 18.0 66 4.3 SE 7 9 4 5 1005.4 1003.9 0.0

Other Formats:

Comma delimited format used in spreadsheet applications
http://www.bom.gov.au/fwo/IDN60801/IDN60801.95734.axf

JavaScript Object Notation format (JSON) in row-major order
http://www.bom.gov.au/fwo/IDN60801/IDN60801.95734.json